createdAt,value
2023-04-18T00:02:23.626Z,25.10
2023-04-18T00:04:50.714Z,23.85
2023-04-18T00:07:18.092Z,21.88
2023-04-18T00:09:45.008Z,19.42
2023-04-18T00:12:11.869Z,20.98
2023-04-18T00:14:38.715Z,20.45
2023-04-18T00:17:09.121Z,18.60
2023-04-18T00:19:37.442Z,18.70
2023-04-18T00:22:04.163Z,20.55
2023-04-18T00:24:31.800Z,21.50
2023-04-18T00:26:58.737Z,20.33
2023-04-18T00:29:26.067Z,22.40
2023-04-18T00:31:52.769Z,22.50
2023-04-18T00:34:19.925Z,20.42
2023-04-18T00:36:46.871Z,20.65
2023-04-18T00:39:13.628Z,20.30
2023-04-18T00:41:40.348Z,19.88
2023-04-18T00:44:07.110Z,20.13
2023-04-18T00:46:34.010Z,19.67
2023-04-18T00:49:00.989Z,20.70
2023-04-18T00:51:28.546Z,22.75
2023-04-18T00:53:55.322Z,22.08
2023-04-18T00:56:24.134Z,20.70
2023-04-18T00:58:50.782Z,23.10
2023-04-18T01:01:18.491Z,22.58
2023-04-18T01:03:45.354Z,21.08
2023-04-18T01:06:12.350Z,22.80
2023-04-18T01:08:39.201Z,21.38
2023-04-18T01:11:08.805Z,21.75
2023-04-18T01:13:36.991Z,21.30
2023-04-18T01:16:04.124Z,20.92
2023-04-18T01:18:31.870Z,22.45
2023-04-18T01:21:00.851Z,20.98
2023-04-18T01:23:27.890Z,22.25
2023-04-18T01:25:54.599Z,20.92
2023-04-18T01:28:24.295Z,20.90
2023-04-18T01:30:51.125Z,20.50
2023-04-18T01:33:17.914Z,20.73
2023-04-18T01:35:44.632Z,22.75
2023-04-18T01:38:11.741Z,22.45
2023-04-18T01:40:38.492Z,23.75
2023-04-18T01:43:05.244Z,22.45
2023-04-18T01:45:31.910Z,23.80
2023-04-18T01:47:58.683Z,21.45
2023-04-18T01:50:25.485Z,20.23
2023-04-18T01:52:52.623Z,22.00
2023-04-18T01:55:19.534Z,18.55
2023-04-18T01:57:46.656Z,18.92
2023-04-18T02:00:14.260Z,18.60
2023-04-18T02:02:41.750Z,19.10
2023-04-18T02:05:09.144Z,19.10
2023-04-18T02:07:35.885Z,17.65
2023-04-18T02:10:03.483Z,20.05
2023-04-18T02:12:30.138Z,17.58
2023-04-18T02:14:56.931Z,17.58
2023-04-18T02:17:24.190Z,16.90
2023-04-18T02:19:53.809Z,18.70
2023-04-18T02:22:20.702Z,20.70
2023-04-18T02:24:47.401Z,20.15
2023-04-18T02:27:14.467Z,19.60
2023-04-18T02:29:41.294Z,17.75
2023-04-18T02:32:08.556Z,20.20
2023-04-18T02:34:36.731Z,20.02
2023-04-18T02:37:03.790Z,19.65
2023-04-18T02:39:30.557Z,19.98
2023-04-18T02:41:57.388Z,19.42
2023-04-18T02:44:24.106Z,21.35
2023-04-18T02:46:50.832Z,21.13
2023-04-18T02:49:17.489Z,25.38
2023-04-18T02:51:44.157Z,24.73
2023-04-18T02:54:11.092Z,23.27
2023-04-18T02:56:40.270Z,21.80
2023-04-18T02:59:07.472Z,23.48
2023-04-18T03:01:34.236Z,23.63
2023-04-18T03:04:01.026Z,23.00
2023-04-18T03:06:27.756Z,24.42
2023-04-18T03:08:55.599Z,24.85
2023-04-18T03:11:22.752Z,22.23
2023-04-18T03:13:49.556Z,23.75
2023-04-18T03:16:17.062Z,21.90
2023-04-18T03:18:44.072Z,20.80
2023-04-18T03:21:11.692Z,22.65
2023-04-18T03:23:38.537Z,23.27
2023-04-18T03:26:06.933Z,19.80
2023-04-18T03:28:33.903Z,20.95
2023-04-18T03:31:00.838Z,18.35
2023-04-18T03:33:29.090Z,21.58
2023-04-18T03:35:56.077Z,17.02
2023-04-18T03:38:24.188Z,17.55
2023-04-18T03:40:51.180Z,17.60
2023-04-18T03:43:19.794Z,16.90
2023-04-18T03:45:48.117Z,17.48
2023-04-18T03:48:14.915Z,18.77
2023-04-18T03:50:41.585Z,18.60
2023-04-18T03:53:08.593Z,18.08
2023-04-18T03:55:35.526Z,15.45
2023-04-18T03:58:02.248Z,18.13
2023-04-18T04:00:29.409Z,17.10
2023-04-18T04:02:56.548Z,16.02
2023-04-18T04:05:23.474Z,16.45
2023-04-18T04:07:50.239Z,16.95
2023-04-18T04:10:17.006Z,15.68
2023-04-18T04:12:43.755Z,14.02
2023-04-18T04:15:11.505Z,13.98
2023-04-18T04:17:38.300Z,15.55
2023-04-18T04:20:05.888Z,15.68
2023-04-18T04:22:33.133Z,16.48
2023-04-18T04:25:01.444Z,15.30
2023-04-18T04:27:28.334Z,13.93
2023-04-18T04:29:56.733Z,12.95
2023-04-18T04:32:24.340Z,12.77
2023-04-18T04:34:51.166Z,13.98
2023-04-18T04:37:20.059Z,11.18
2023-04-18T04:39:46.981Z,10.65
2023-04-18T04:42:13.761Z,10.18
2023-04-18T04:44:41.917Z,10.05
2023-04-18T04:47:08.751Z,11.35
2023-04-18T04:49:36.094Z,11.98
2023-04-18T04:52:05.816Z,11.57
2023-04-18T04:54:32.642Z,9.65
2023-04-18T04:56:59.374Z,9.68
2023-04-18T04:59:26.461Z,10.45
2023-04-18T05:01:53.355Z,8.68
2023-04-18T05:04:20.587Z,8.15
2023-04-18T05:06:47.496Z,10.43
2023-04-18T05:09:14.507Z,10.00
2023-04-18T05:11:41.321Z,10.55
2023-04-18T05:14:08.078Z,10.00
2023-04-18T05:16:35.085Z,9.85
2023-04-18T05:19:01.882Z,11.93
2023-04-18T05:21:29.247Z,11.43
2023-04-18T05:23:59.074Z,10.20
2023-04-18T05:26:25.809Z,9.93
2023-04-18T05:28:52.564Z,10.18
2023-04-18T05:31:19.229Z,12.55
2023-04-18T05:33:46.156Z,12.48
2023-04-18T05:36:13.093Z,11.30
2023-04-18T05:38:40.374Z,13.00
2023-04-18T05:41:07.089Z,11.90
2023-04-18T05:43:33.845Z,11.40
2023-04-18T05:46:00.684Z,11.48
2023-04-18T05:48:27.748Z,11.13
2023-04-18T05:50:54.487Z,8.43
2023-04-18T05:53:21.843Z,11.48
2023-04-18T05:55:49.330Z,11.63
2023-04-18T05:58:16.764Z,11.02
2023-04-18T06:00:43.634Z,12.57
2023-04-18T06:03:11.341Z,8.25
2023-04-18T06:05:39.082Z,10.80
2023-04-18T06:08:06.234Z,11.32
2023-04-18T06:10:33.384Z,10.30
2023-04-18T06:13:00.196Z,9.65
2023-04-18T06:15:27.322Z,8.45
2023-04-18T06:17:54.068Z,11.32
2023-04-18T06:20:20.880Z,9.77
2023-04-18T06:22:47.744Z,10.90
2023-04-18T06:25:14.987Z,10.95
2023-04-18T06:27:41.934Z,11.93
2023-04-18T06:30:09.570Z,10.18
2023-04-18T06:32:36.537Z,11.35
2023-04-18T06:35:04.081Z,9.88
2023-04-18T06:37:30.879Z,11.73
2023-04-18T06:39:57.659Z,12.68
2023-04-18T06:42:24.446Z,9.90
2023-04-18T06:44:51.630Z,11.73
2023-04-18T06:47:18.999Z,10.40
2023-04-18T06:49:45.822Z,14.95
2023-04-18T06:52:12.551Z,12.13
2023-04-18T06:54:39.253Z,12.65
2023-04-18T06:57:06.441Z,14.15
2023-04-18T06:59:33.524Z,15.13
2023-04-18T07:02:00.295Z,13.45
2023-04-18T07:04:27.263Z,14.75
2023-04-18T07:06:54.711Z,16.00
2023-04-18T07:09:23.116Z,13.15
2023-04-18T07:11:51.445Z,16.20
2023-04-18T07:14:20.383Z,16.30
2023-04-18T07:16:47.420Z,18.30
2023-04-18T07:19:14.536Z,16.67
2023-04-18T07:21:44.106Z,20.90
2023-04-18T07:24:12.589Z,19.95
2023-04-18T07:26:39.792Z,21.92
2023-04-18T07:29:06.714Z,21.92
2023-04-18T07:31:35.446Z,23.13
2023-04-18T07:34:02.285Z,25.88
2023-04-18T07:36:29.230Z,24.27
2023-04-18T07:38:56.044Z,27.40
2023-04-18T07:41:22.854Z,28.83
2023-04-18T07:43:50.584Z,27.65
2023-04-18T07:46:17.392Z,27.45
2023-04-18T07:48:44.161Z,29.08
2023-04-18T07:51:11.942Z,30.17
2023-04-18T07:53:38.608Z,27.73
2023-04-18T07:56:05.981Z,27.15
2023-04-18T07:58:34.924Z,29.17
2023-04-18T08:01:01.582Z,29.83
2023-04-18T08:03:28.591Z,28.42
2023-04-18T08:05:56.185Z,35.55
2023-04-18T08:08:22.908Z,30.42
2023-04-18T08:10:49.760Z,31.98
2023-04-18T08:13:18.216Z,30.60
2023-04-18T08:15:46.630Z,30.90
2023-04-18T08:18:13.617Z,32.05
2023-04-18T08:20:41.188Z,35.80
2023-04-18T08:23:11.261Z,39.42
2023-04-18T08:25:39.691Z,36.63
2023-04-18T08:28:06.873Z,40.47
2023-04-18T08:30:34.293Z,42.33
2023-04-18T08:33:01.469Z,43.20
2023-04-18T08:35:28.900Z,45.35
2023-04-18T08:37:55.872Z,44.95
2023-04-18T08:40:23.031Z,47.38
2023-04-18T08:42:50.674Z,52.95
2023-04-18T08:45:18.949Z,46.40
2023-04-18T08:47:45.877Z,52.25
2023-04-18T08:50:13.107Z,49.15
2023-04-18T08:52:45.381Z,46.38
2023-04-18T08:55:12.600Z,50.97
2023-04-18T08:57:43.662Z,46.03
2023-04-18T09:00:12.216Z,42.33
2023-04-18T09:02:44.969Z,43.67
2023-04-18T09:05:14.782Z,40.78
2023-04-18T09:07:41.796Z,41.05
2023-04-18T09:10:10.188Z,37.55
2023-04-18T09:12:50.717Z,41.35
2023-04-18T09:15:20.935Z,36.85
2023-04-18T09:17:51.289Z,36.60
2023-04-18T09:20:36.453Z,37.75
2023-04-18T09:23:11.501Z,35.97
2023-04-18T09:25:47.045Z,37.70
2023-04-18T09:28:33.814Z,36.28
2023-04-18T09:31:13.336Z,36.70
2023-04-18T09:33:43.502Z,36.60
2023-04-18T09:36:29.376Z,34.30
2023-04-18T09:38:57.279Z,34.38
2023-04-18T09:41:24.675Z,33.95
2023-04-18T09:44:09.298Z,35.17
2023-04-18T09:46:37.681Z,32.47
2023-04-18T09:49:04.543Z,33.45
2023-04-18T09:51:32.123Z,28.30
2023-04-18T09:53:59.641Z,31.83
2023-04-18T09:56:28.759Z,31.75
2023-04-18T09:58:57.236Z,28.40
2023-04-18T10:01:28.547Z,31.48
2023-04-18T10:03:56.534Z,30.67
2023-04-18T10:06:23.756Z,32.05
2023-04-18T10:08:52.128Z,27.73
2023-04-18T10:11:20.308Z,31.83
2023-04-18T10:13:54.101Z,26.63
2023-04-18T10:16:22.521Z,27.48
2023-04-18T10:18:51.083Z,25.17
2023-04-18T10:21:18.088Z,28.92
2023-04-18T10:23:49.058Z,31.75
2023-04-18T10:26:16.410Z,25.08
2023-04-18T10:28:59.326Z,21.42
2023-04-18T10:31:27.769Z,22.15
2023-04-18T10:36:28.954Z,23.83
2023-04-18T10:39:06.095Z,22.60
2023-04-18T10:41:34.075Z,25.90
2023-04-18T10:44:27.870Z,22.30
2023-04-18T10:47:18.635Z,21.83
2023-04-18T10:49:53.979Z,22.10
2023-04-18T10:52:20.795Z,22.52
2023-04-18T10:54:52.961Z,19.80
2023-04-18T10:57:19.720Z,22.48
2023-04-18T10:59:51.491Z,19.83
2023-04-18T11:02:30.554Z,18.75
2023-04-18T11:05:01.846Z,19.55
2023-04-18T11:07:49.237Z,20.42
2023-04-18T11:10:22.305Z,19.95
2023-04-18T11:12:49.765Z,19.55
2023-04-18T11:15:21.911Z,19.40
2023-04-18T11:17:57.414Z,20.10
2023-04-18T11:20:24.424Z,20.27
2023-04-18T11:22:58.923Z,21.33
2023-04-18T11:25:32.220Z,20.85
2023-04-18T11:28:01.051Z,25.67
2023-04-18T11:30:28.830Z,19.55
2023-04-18T11:32:56.336Z,19.90
2023-04-18T11:35:23.258Z,21.00
2023-04-18T11:37:51.544Z,19.52
2023-04-18T11:40:18.587Z,19.85
2023-04-18T11:42:45.777Z,18.70
2023-04-18T11:45:14.363Z,20.23
2023-04-18T11:47:43.259Z,18.42
2023-04-18T11:50:12.465Z,18.92
2023-04-18T11:52:41.625Z,16.15
2023-04-18T11:55:22.068Z,18.45
2023-04-18T11:57:57.291Z,23.45
2023-04-18T12:00:37.794Z,15.43
2023-04-18T12:03:15.922Z,21.17
2023-04-18T12:05:43.282Z,18.92
2023-04-18T12:08:12.113Z,19.88
2023-04-18T12:10:49.108Z,15.00
2023-04-18T12:13:16.419Z,19.45
2023-04-18T12:15:44.913Z,20.75
2023-04-18T12:18:13.557Z,21.13
2023-04-18T12:20:46.893Z,17.67
2023-04-18T12:23:51.191Z,20.53
2023-04-18T12:26:23.440Z,18.35
2023-04-18T12:28:51.574Z,16.88
2023-04-18T12:31:18.345Z,17.00
2023-04-18T12:33:45.146Z,18.27
2023-04-18T12:36:11.984Z,18.20
2023-04-18T12:38:38.735Z,15.18
2023-04-18T12:41:06.212Z,16.13
2023-04-18T12:43:32.953Z,17.05
2023-04-18T12:46:00.141Z,15.32
2023-04-18T12:48:26.903Z,20.40
2023-04-18T12:50:53.720Z,16.25
2023-04-18T12:53:20.634Z,16.20
2023-04-18T12:55:47.448Z,17.23
2023-04-18T12:58:19.105Z,15.23
2023-04-18T13:00:46.600Z,17.35
2023-04-18T13:03:13.990Z,16.85
2023-04-18T13:05:41.253Z,18.20
2023-04-18T13:08:17.257Z,17.27
2023-04-18T13:10:45.866Z,15.57
2023-04-18T13:13:12.828Z,14.90
2023-04-18T13:15:40.154Z,13.95
2023-04-18T13:18:07.305Z,55.47
2023-04-18T13:20:34.506Z,16.40
2023-04-18T13:23:02.878Z,31.88
2023-04-18T13:25:29.670Z,21.25
2023-04-18T13:27:58.711Z,23.13
2023-04-18T13:30:25.941Z,12.02
2023-04-18T13:32:52.793Z,14.57
2023-04-18T13:35:20.222Z,16.92
2023-04-18T13:37:47.013Z,15.55
2023-04-18T13:40:14.008Z,16.77
2023-04-18T13:42:40.833Z,38.45
2023-04-18T13:45:07.948Z,27.70
2023-04-18T13:47:34.838Z,47.85
2023-04-18T13:50:01.890Z,15.95
2023-04-18T13:52:28.934Z,16.92
2023-04-18T13:54:55.828Z,14.25
2023-04-18T13:57:23.412Z,15.30
2023-04-18T13:59:50.424Z,15.45
2023-04-18T14:02:17.442Z,16.52
2023-04-18T14:04:44.392Z,14.65
2023-04-18T14:07:11.293Z,15.90
2023-04-18T14:09:38.052Z,17.30
2023-04-18T14:12:05.250Z,15.80
2023-04-18T14:14:31.963Z,14.18
2023-04-18T14:16:59.023Z,13.32
2023-04-18T14:19:27.220Z,16.23
2023-04-18T14:21:54.191Z,14.38
2023-04-18T14:24:21.287Z,20.50
2023-04-18T14:26:48.228Z,15.02
2023-04-18T14:29:15.199Z,16.33
2023-04-18T14:31:42.247Z,14.95
2023-04-18T14:34:10.035Z,15.05
2023-04-18T14:36:37.146Z,17.88
2023-04-18T14:39:04.274Z,12.88
2023-04-18T14:41:31.266Z,15.80
2023-04-18T14:43:58.183Z,12.02
2023-04-18T14:46:25.639Z,25.00
2023-04-18T14:48:52.480Z,17.83
2023-04-18T14:51:19.587Z,13.57
2023-04-18T14:53:46.538Z,12.90
2023-04-18T14:56:15.448Z,14.35
2023-04-18T14:58:44.162Z,15.98
2023-04-18T15:01:10.942Z,14.35
2023-04-18T15:03:38.138Z,13.18
2023-04-18T15:06:05.164Z,14.38
2023-04-18T15:08:32.856Z,14.07
2023-04-18T15:10:59.811Z,12.80
2023-04-18T15:13:26.569Z,14.02
2023-04-18T15:15:53.834Z,11.25
2023-04-18T15:18:20.926Z,13.27
2023-04-18T15:20:47.846Z,12.38
2023-04-18T15:23:15.242Z,13.15
2023-04-18T15:25:42.869Z,12.55
2023-04-18T15:28:10.184Z,15.73
2023-04-18T15:30:37.285Z,15.88
2023-04-18T15:33:04.257Z,13.95
2023-04-18T15:35:32.156Z,14.18
2023-04-18T15:37:58.917Z,13.80
2023-04-18T15:40:25.667Z,14.68
2023-04-18T15:42:54.890Z,15.48
2023-04-18T15:45:22.364Z,17.38
2023-04-18T15:47:49.440Z,14.85
2023-04-18T15:50:16.680Z,16.88
2023-04-18T15:52:44.130Z,15.23
2023-04-18T15:55:12.680Z,13.48
2023-04-18T15:57:40.291Z,17.83
2023-04-18T16:00:14.241Z,13.55
2023-04-18T16:02:41.032Z,12.70
2023-04-18T16:05:08.768Z,14.98
2023-04-18T16:07:35.513Z,14.27
2023-04-18T16:10:05.356Z,13.27
2023-04-18T16:12:32.225Z,12.07
2023-04-18T16:14:58.985Z,13.77
2023-04-18T16:17:25.801Z,12.60
2023-04-18T16:19:52.633Z,13.07
2023-04-18T16:22:19.421Z,14.80
2023-04-18T16:24:46.311Z,14.05
2023-04-18T16:27:13.159Z,14.63
2023-04-18T16:29:40.032Z,14.57
2023-04-18T16:32:08.617Z,14.18
2023-04-18T16:34:35.453Z,15.15
2023-04-18T16:37:02.317Z,12.88
2023-04-18T16:39:29.784Z,15.85
2023-04-18T16:41:56.842Z,14.38
2023-04-18T16:44:23.764Z,13.27
2023-04-18T16:46:50.932Z,13.45
2023-04-18T16:49:17.845Z,14.55
2023-04-18T16:51:45.088Z,14.38
2023-04-18T16:54:12.175Z,16.63
2023-04-18T16:56:39.191Z,16.08
2023-04-18T16:59:09.421Z,19.35
2023-04-18T17:01:36.861Z,14.32
2023-04-18T17:04:04.257Z,14.18
2023-04-18T17:06:32.542Z,13.75
2023-04-18T17:08:59.357Z,16.90
2023-04-18T17:11:26.846Z,21.98
2023-04-18T17:13:53.766Z,16.92
2023-04-18T17:16:20.652Z,16.58
2023-04-18T17:18:47.459Z,15.57
2023-04-18T17:21:14.280Z,15.95
2023-04-18T17:23:42.752Z,14.77
2023-04-18T17:26:09.999Z,15.23
2023-04-18T17:28:36.910Z,14.65
2023-04-18T17:31:04.252Z,15.68
2023-04-18T17:33:31.712Z,16.02
2023-04-18T17:35:58.995Z,16.58
2023-04-18T17:38:25.861Z,15.98
2023-04-18T17:41:02.984Z,15.23
2023-04-18T17:43:29.917Z,14.82
2023-04-18T17:46:00.345Z,15.10
2023-04-18T17:48:27.131Z,18.00
2023-04-18T17:50:54.143Z,15.57
2023-04-18T17:53:21.173Z,16.63
2023-04-18T17:55:51.040Z,15.60
2023-04-18T17:58:18.989Z,18.02
2023-04-18T18:00:45.819Z,15.93
2023-04-18T18:03:16.439Z,18.45
2023-04-18T18:05:46.146Z,17.90
2023-04-18T18:08:12.945Z,20.58
2023-04-18T18:10:39.726Z,18.63
2023-04-18T18:13:07.191Z,17.60
2023-04-18T18:15:33.907Z,17.58
2023-04-18T18:18:02.194Z,18.77
2023-04-18T18:20:29.683Z,21.63
2023-04-18T18:22:57.575Z,21.30
2023-04-18T18:25:24.426Z,17.13
2023-04-18T18:27:51.796Z,17.63
2023-04-18T18:30:19.474Z,19.60
2023-04-18T18:32:46.401Z,16.88
2023-04-18T18:35:13.457Z,21.13
2023-04-18T18:37:41.429Z,21.33
2023-04-18T18:40:09.407Z,19.77
2023-04-18T18:42:37.030Z,20.50
2023-04-18T18:45:04.300Z,24.33
2023-04-18T18:47:31.098Z,16.85
2023-04-18T18:49:57.856Z,15.57
2023-04-18T18:52:25.278Z,18.65
2023-04-18T18:54:53.153Z,16.33
2023-04-18T18:57:19.919Z,16.92
2023-04-18T18:59:48.657Z,18.70
2023-04-18T19:02:15.442Z,17.10
2023-04-18T19:04:42.626Z,22.73
2023-04-18T19:07:09.845Z,18.58
2023-04-18T19:09:37.208Z,18.67
2023-04-18T19:12:05.130Z,18.52
2023-04-18T19:14:31.841Z,20.90
2023-04-18T19:16:58.631Z,21.80
2023-04-18T19:19:25.371Z,19.10
2023-04-18T19:21:52.114Z,20.17
2023-04-18T19:24:19.258Z,19.83
2023-04-18T19:26:45.996Z,24.33
2023-04-18T19:29:14.779Z,24.02
2023-04-18T19:31:43.835Z,23.70
2023-04-18T19:34:11.145Z,21.35
2023-04-18T19:36:38.041Z,20.45
2023-04-18T19:39:04.742Z,24.10
2023-04-18T19:41:31.470Z,22.23
2023-04-18T19:43:58.243Z,23.20
2023-04-18T19:46:24.950Z,23.42
2023-04-18T19:48:51.647Z,26.67
2023-04-18T19:51:18.406Z,24.05
2023-04-18T19:53:45.209Z,23.58
2023-04-18T19:56:13.946Z,24.08
2023-04-18T19:58:45.363Z,24.90
2023-04-18T20:01:13.604Z,22.90
2023-04-18T20:03:41.209Z,23.95
2023-04-18T20:06:08.835Z,25.88
2023-04-18T20:08:36.947Z,26.20
2023-04-18T20:11:10.965Z,24.27
2023-04-18T20:13:38.320Z,23.65
2023-04-18T20:16:06.108Z,27.02
2023-04-18T20:18:36.227Z,26.67
2023-04-18T20:21:03.649Z,26.08
2023-04-18T20:23:30.388Z,31.98
2023-04-18T20:25:57.161Z,31.27
2023-04-18T20:28:24.037Z,29.23
2023-04-18T20:30:51.039Z,28.38
2023-04-18T20:33:17.871Z,26.67
2023-04-18T20:35:44.958Z,31.25
2023-04-18T20:38:12.589Z,26.70
2023-04-18T20:40:39.967Z,29.13
2023-04-18T20:43:08.397Z,26.85
2023-04-18T20:45:37.980Z,27.75
2023-04-18T20:48:05.329Z,27.00
2023-04-18T20:50:32.162Z,27.95
2023-04-18T20:53:01.136Z,27.02
2023-04-18T20:55:28.151Z,25.45
2023-04-18T20:57:56.940Z,29.40
2023-04-18T21:00:23.926Z,26.95
2023-04-18T21:02:51.013Z,26.92
2023-04-18T21:05:17.836Z,28.27
2023-04-18T21:07:45.846Z,28.67
2023-04-18T21:10:12.691Z,27.60
2023-04-18T21:12:39.610Z,26.48
2023-04-18T21:15:06.979Z,30.52
2023-04-18T21:17:34.038Z,28.55
2023-04-18T21:20:00.770Z,27.17
2023-04-18T21:22:27.524Z,25.70
2023-04-18T21:24:54.401Z,26.58
2023-04-18T21:27:21.578Z,25.83
2023-04-18T21:29:48.320Z,25.27
2023-04-18T21:32:15.391Z,28.88
2023-04-18T21:34:42.402Z,28.90
2023-04-18T21:37:09.527Z,32.33
2023-04-18T21:39:38.489Z,27.50
2023-04-18T21:42:05.291Z,27.58
2023-04-18T21:44:32.218Z,28.83
2023-04-18T21:46:59.105Z,29.00
2023-04-18T21:49:26.076Z,27.35
2023-04-18T21:51:52.986Z,31.05
2023-04-18T21:54:19.795Z,26.98
2023-04-18T21:56:48.390Z,28.67
2023-04-18T21:59:15.176Z,29.27
2023-04-18T22:01:43.044Z,28.70
2023-04-18T22:04:09.975Z,27.00
2023-04-18T22:06:37.322Z,24.73
2023-04-18T22:09:05.608Z,29.20
2023-04-18T22:11:34.185Z,30.10
2023-04-18T22:14:01.799Z,27.40
2023-04-18T22:16:29.563Z,28.95
2023-04-18T22:18:56.428Z,29.83
2023-04-18T22:21:23.417Z,28.30
2023-04-18T22:23:50.316Z,29.65
2023-04-18T22:26:17.126Z,27.52
2023-04-18T22:28:43.862Z,30.60
2023-04-18T22:31:10.686Z,29.65
2023-04-18T22:33:38.045Z,29.40
2023-04-18T22:36:05.966Z,28.63
2023-04-18T22:38:32.853Z,26.70
2023-04-18T22:41:00.139Z,29.50
2023-04-18T22:43:27.264Z,28.95
2023-04-18T22:45:54.090Z,29.15
2023-04-18T22:48:21.047Z,26.70
2023-04-18T22:50:48.019Z,28.75
2023-04-18T22:53:15.470Z,26.17
2023-04-18T22:55:43.460Z,28.27
2023-04-18T22:58:11.141Z,25.00
2023-04-18T23:00:37.900Z,27.77
2023-04-18T23:03:05.046Z,26.83
2023-04-18T23:05:32.263Z,27.80
2023-04-18T23:08:00.329Z,26.08
2023-04-18T23:10:28.068Z,29.08
2023-04-18T23:12:55.061Z,28.33
2023-04-18T23:15:23.086Z,28.58
2023-04-18T23:17:54.944Z,28.85
2023-04-18T23:20:22.100Z,31.15
2023-04-18T23:22:51.987Z,25.90
2023-04-18T23:25:20.047Z,26.27
2023-04-18T23:27:47.485Z,29.65
2023-04-18T23:30:14.388Z,25.80
2023-04-18T23:32:41.331Z,31.40
2023-04-18T23:35:08.923Z,29.60
2023-04-18T23:37:35.719Z,29.63
2023-04-18T23:40:06.264Z,29.27
2023-04-18T23:42:35.136Z,27.83
2023-04-18T23:45:04.215Z,28.40
2023-04-18T23:47:30.974Z,26.45
2023-04-18T23:49:57.743Z,28.63
2023-04-18T23:52:24.607Z,27.50
2023-04-18T23:54:52.087Z,24.02
2023-04-18T23:57:18.876Z,25.65
2023-04-18T23:59:45.578Z,27.33
